createdAt,value
2022-08-14T00:04:54.896Z,11.05
2022-08-14T00:07:22.797Z,11.90
2022-08-14T00:10:01.542Z,12.52
2022-08-14T00:12:42.528Z,11.75
2022-08-14T00:15:29.659Z,11.23
2022-08-14T00:18:07.541Z,13.63
2022-08-14T00:20:43.011Z,12.25
2022-08-14T00:23:17.327Z,11.63
2022-08-14T00:25:59.214Z,13.32
2022-08-14T00:28:35.326Z,11.52
2022-08-14T00:31:06.646Z,11.40
2022-08-14T00:33:51.753Z,10.10
2022-08-14T00:36:48.134Z,11.48
2022-08-14T00:39:18.241Z,11.25
2022-08-14T00:41:47.682Z,11.65
2022-08-14T00:44:21.347Z,11.55
2022-08-14T00:47:02.869Z,11.02
2022-08-14T00:49:38.041Z,12.05
2022-08-14T00:52:14.089Z,11.05
2022-08-14T00:54:52.783Z,11.77
2022-08-14T00:57:28.705Z,10.82
2022-08-14T00:59:56.821Z,10.50
2022-08-14T01:02:24.833Z,10.40
2022-08-14T01:04:58.803Z,9.00
2022-08-14T01:07:29.178Z,7.68
2022-08-14T01:10:06.844Z,9.02
2022-08-14T01:12:33.983Z,8.77
2022-08-14T01:15:09.740Z,9.25
2022-08-14T01:18:01.265Z,9.90
2022-08-14T01:20:47.567Z,8.77
2022-08-14T01:23:18.696Z,8.90
2022-08-14T01:25:49.088Z,9.90
2022-08-14T01:28:34.509Z,10.50
2022-08-14T01:31:18.260Z,10.25
2022-08-14T01:35:15.742Z,9.98
2022-08-14T01:36:37.495Z,10.13
2022-08-14T01:39:17.448Z,10.60
2022-08-14T01:41:55.697Z,10.10
2022-08-14T01:44:31.963Z,11.60
2022-08-14T01:47:21.582Z,11.23
2022-08-14T01:49:59.804Z,12.98
2022-08-14T01:52:58.742Z,9.48
2022-08-14T01:55:29.833Z,10.45
2022-08-14T01:58:01.618Z,10.50
2022-08-14T02:00:53.368Z,9.43
2022-08-14T02:03:31.163Z,9.13
2022-08-14T02:06:03.926Z,8.98
2022-08-14T02:08:52.931Z,9.63
2022-08-14T02:11:25.107Z,10.18
2022-08-14T02:13:59.771Z,10.43
2022-08-14T02:16:54.245Z,10.32
2022-08-14T02:19:31.579Z,10.60
2022-08-14T02:22:02.883Z,10.32
2022-08-14T02:24:38.834Z,10.38
2022-08-14T02:28:21.906Z,11.15
2022-08-14T02:30:00.007Z,9.82
2022-08-14T02:32:36.781Z,9.52
2022-08-14T02:35:13.003Z,9.65
2022-08-14T02:37:48.396Z,10.13
2022-08-14T02:40:32.261Z,10.70
2022-08-14T02:43:02.734Z,9.98
2022-08-14T02:45:38.722Z,10.80
2022-08-14T02:49:01.615Z,9.25
2022-08-14T02:51:09.980Z,8.52
2022-08-14T02:53:44.842Z,9.55
2022-08-14T02:57:13.771Z,9.68
2022-08-14T02:59:05.857Z,10.50
2022-08-14T03:01:43.339Z,10.20
2022-08-14T03:04:20.224Z,8.77
2022-08-14T03:06:57.668Z,9.10
2022-08-14T03:10:26.092Z,9.00
2022-08-14T03:12:30.968Z,10.23
2022-08-14T03:15:16.586Z,11.45
2022-08-14T03:17:56.831Z,11.18
2022-08-14T03:20:28.032Z,9.40
2022-08-14T03:22:59.086Z,9.95
2022-08-14T03:25:32.681Z,10.20
2022-08-14T03:28:06.638Z,9.38
2022-08-14T03:30:40.003Z,11.93
2022-08-14T03:33:11.404Z,9.70
2022-08-14T03:36:00.102Z,9.88
2022-08-14T03:39:13.279Z,10.20
2022-08-14T03:41:23.703Z,10.35
2022-08-14T03:45:17.494Z,10.10
2022-08-14T03:46:54.627Z,9.82
2022-08-14T03:49:29.384Z,10.07
2022-08-14T03:51:58.402Z,9.55
2022-08-14T03:54:29.044Z,10.00
2022-08-14T03:57:00.195Z,9.95
2022-08-14T03:59:32.265Z,11.55
2022-08-14T04:02:02.925Z,10.90
2022-08-14T04:04:33.557Z,13.75
2022-08-14T04:07:01.049Z,11.70
2022-08-14T04:09:28.750Z,11.30
2022-08-14T04:11:57.957Z,11.30
2022-08-14T04:14:25.398Z,11.70
2022-08-14T04:16:52.484Z,13.00
2022-08-14T04:19:23.092Z,12.18
2022-08-14T04:22:02.349Z,11.07
2022-08-14T04:24:38.542Z,10.20
2022-08-14T04:27:12.725Z,14.27
2022-08-14T04:29:44.805Z,17.10
2022-08-14T04:33:01.663Z,10.20
2022-08-14T04:35:07.171Z,9.30
2022-08-14T04:37:54.029Z,9.82
2022-08-14T04:40:40.302Z,10.70
2022-08-14T04:43:38.822Z,10.38
2022-08-14T04:46:56.073Z,9.68
2022-08-14T04:49:07.760Z,10.65
2022-08-14T04:51:37.506Z,10.55
2022-08-14T04:54:14.456Z,9.73
2022-08-14T04:56:44.420Z,8.85
2022-08-14T05:01:44.939Z,9.70
2022-08-14T05:04:20.166Z,9.38
2022-08-14T05:06:53.558Z,9.27
2022-08-14T05:09:23.642Z,9.15
2022-08-14T05:11:51.493Z,7.78
2022-08-14T05:14:43.208Z,9.05
2022-08-14T05:17:11.453Z,9.27
2022-08-14T05:19:44.222Z,8.30
2022-08-14T05:22:17.034Z,8.23
2022-08-14T05:24:51.486Z,8.25
2022-08-14T05:27:23.337Z,7.38
2022-08-14T05:29:55.446Z,5.88
2022-08-14T05:32:27.786Z,6.57
2022-08-14T05:34:59.532Z,6.55
2022-08-14T05:37:30.105Z,6.38
2022-08-14T05:39:59.008Z,6.90
2022-08-14T05:42:29.169Z,6.53
2022-08-14T05:44:59.990Z,6.82
2022-08-14T05:49:57.857Z,6.40
2022-08-14T05:52:38.503Z,6.78
2022-08-14T05:55:11.415Z,6.28
2022-08-14T05:57:59.399Z,6.90
2022-08-14T06:00:36.965Z,6.82
2022-08-14T06:03:15.861Z,8.18
2022-08-14T06:05:45.450Z,7.03
2022-08-14T06:08:36.032Z,6.68
2022-08-14T06:11:09.701Z,6.75
2022-08-14T06:13:45.221Z,6.50
2022-08-14T06:16:17.669Z,6.43
2022-08-14T06:18:52.716Z,6.65
2022-08-14T06:21:23.728Z,7.65
2022-08-14T06:23:51.428Z,5.88
2022-08-14T06:26:20.758Z,6.43
2022-08-14T06:28:52.249Z,6.18
2022-08-14T06:31:20.642Z,6.32
2022-08-14T06:35:03.715Z,7.50
2022-08-14T06:36:37.365Z,6.85
2022-08-14T06:39:04.491Z,7.13
2022-08-14T06:41:58.163Z,7.65
2022-08-14T06:44:30.291Z,7.90
2022-08-14T06:47:01.924Z,7.28
2022-08-14T06:49:30.285Z,7.47
2022-08-14T06:51:57.974Z,7.22
2022-08-14T06:54:31.129Z,8.15
2022-08-14T06:56:58.984Z,6.80
2022-08-14T06:59:27.086Z,6.95
2022-08-14T07:02:17.568Z,8.00
2022-08-14T07:05:05.289Z,7.05
2022-08-14T07:10:13.324Z,8.55
2022-08-14T07:13:01.444Z,21.83
2022-08-14T07:15:34.040Z,11.30
2022-08-14T07:18:03.151Z,8.45
2022-08-14T07:20:32.009Z,7.90
2022-08-14T07:23:09.292Z,7.90
2022-08-14T07:25:43.680Z,8.55
2022-08-14T07:28:20.728Z,8.35
2022-08-14T07:30:51.259Z,8.67
2022-08-14T07:33:24.889Z,7.60
2022-08-14T07:38:35.800Z,7.50
2022-08-14T07:41:06.964Z,7.78
2022-08-14T07:43:40.795Z,7.28
2022-08-14T07:46:08.257Z,6.78
2022-08-14T07:48:43.279Z,7.22
2022-08-14T07:51:11.437Z,6.93
2022-08-14T07:53:40.590Z,7.75
2022-08-14T07:56:44.316Z,7.35
2022-08-14T07:58:58.333Z,7.90
2022-08-14T08:01:30.295Z,7.63
2022-08-14T08:04:01.311Z,7.93
2022-08-14T08:06:30.938Z,8.23
2022-08-14T08:09:03.240Z,9.30
2022-08-14T08:11:37.586Z,8.45
2022-08-14T08:14:06.721Z,8.20
2022-08-14T08:16:38.250Z,8.27
2022-08-14T08:19:12.518Z,8.82
2022-08-14T08:21:43.546Z,8.43
2022-08-14T08:24:11.416Z,8.40
2022-08-14T08:26:42.171Z,7.72
2022-08-14T08:29:09.452Z,9.30
2022-08-14T08:31:52.001Z,8.25
2022-08-14T08:34:20.520Z,8.20
2022-08-14T08:36:51.297Z,8.55
2022-08-14T08:39:22.246Z,8.48
2022-08-14T08:41:53.217Z,9.02
2022-08-14T08:44:32.094Z,9.05
2022-08-14T08:47:05.227Z,9.05
2022-08-14T08:49:42.878Z,8.20
2022-08-14T08:52:25.472Z,9.00
2022-08-14T08:54:56.366Z,8.63
2022-08-14T08:57:24.175Z,8.60
2022-08-14T08:59:55.006Z,9.93
2022-08-14T09:02:22.772Z,8.02
2022-08-14T09:05:03.164Z,9.60
2022-08-14T09:07:31.134Z,9.15
2022-08-14T09:09:59.833Z,9.88
2022-08-14T09:12:33.580Z,8.55
2022-08-14T09:15:11.434Z,8.65
2022-08-14T09:17:44.003Z,8.68
2022-08-14T09:20:13.618Z,9.27
2022-08-14T09:22:55.400Z,9.35
2022-08-14T09:25:58.970Z,8.23
2022-08-14T09:28:12.409Z,8.63
2022-08-14T09:30:51.357Z,8.52
2022-08-14T09:33:56.108Z,8.30
2022-08-14T09:36:32.944Z,8.75
2022-08-14T09:39:32.434Z,7.97
2022-08-14T09:42:37.040Z,8.52
2022-08-14T09:45:39.722Z,8.63
2022-08-14T09:48:16.989Z,9.25
2022-08-14T09:54:18.502Z,9.32
2022-08-14T09:56:43.322Z,8.98
2022-08-14T09:59:14.942Z,8.82
2022-08-14T10:01:46.331Z,8.95
2022-08-14T10:04:32.838Z,9.35
2022-08-14T10:07:05.233Z,10.00
2022-08-14T10:09:33.251Z,8.35
2022-08-14T10:12:04.529Z,8.52
2022-08-14T10:14:36.617Z,7.47
2022-08-14T10:17:07.062Z,8.70
2022-08-14T10:19:48.350Z,9.25
2022-08-14T10:23:14.746Z,7.78
2022-08-14T10:25:15.597Z,8.60
2022-08-14T10:27:46.799Z,8.65
2022-08-14T10:30:22.795Z,7.93
2022-08-14T10:32:54.368Z,8.38
2022-08-14T10:35:23.143Z,9.02
2022-08-14T10:38:00.440Z,9.45
2022-08-14T10:40:43.394Z,8.95
2022-08-14T10:43:25.282Z,8.60
2022-08-14T10:46:04.040Z,9.10
2022-08-14T10:49:02.538Z,8.73
2022-08-14T10:51:36.275Z,8.63
2022-08-14T10:54:16.536Z,9.45
2022-08-14T10:57:20.066Z,8.35
2022-08-14T10:59:55.021Z,8.93
2022-08-14T11:02:50.252Z,8.65
2022-08-14T11:05:26.596Z,8.40
2022-08-14T11:07:56.436Z,8.80
2022-08-14T11:12:57.093Z,8.98
2022-08-14T11:15:27.599Z,9.18
2022-08-14T11:17:56.024Z,8.75
2022-08-14T11:20:30.980Z,7.47
2022-08-14T11:23:00.973Z,8.75
2022-08-14T11:25:43.272Z,7.70
2022-08-14T11:28:19.232Z,7.95
2022-08-14T11:30:54.196Z,9.43
2022-08-14T11:33:30.445Z,9.27
2022-08-14T11:36:00.564Z,8.23
2022-08-14T11:38:44.873Z,9.10
2022-08-14T11:41:17.151Z,8.23
2022-08-14T11:43:57.973Z,7.90
2022-08-14T11:46:30.630Z,7.28
2022-08-14T11:49:06.584Z,8.48
2022-08-14T11:51:53.689Z,8.70
2022-08-14T11:54:34.711Z,8.07
2022-08-14T11:57:04.772Z,9.48
2022-08-14T11:59:33.560Z,7.80
2022-08-14T12:02:38.829Z,7.65
2022-08-14T12:05:04.560Z,7.88
2022-08-14T12:07:48.534Z,7.75
2022-08-14T12:10:26.545Z,7.78
2022-08-14T12:12:56.486Z,7.80
2022-08-14T12:15:36.106Z,8.30
2022-08-14T12:18:04.549Z,7.70
2022-08-14T12:23:07.212Z,7.32
2022-08-14T12:25:35.148Z,7.45
2022-08-14T12:28:26.741Z,8.98
2022-08-14T12:30:58.940Z,7.70
2022-08-14T12:36:06.501Z,6.75
2022-08-14T12:38:37.543Z,6.80
2022-08-14T12:41:36.970Z,6.50
2022-08-14T12:44:06.916Z,6.82
2022-08-14T12:46:40.700Z,6.05
2022-08-14T12:49:16.668Z,6.68
2022-08-14T12:51:56.692Z,6.80
2022-08-14T12:54:28.152Z,4.05
2022-08-14T12:57:18.770Z,3.50
2022-08-14T12:59:49.402Z,3.72
2022-08-14T13:02:26.136Z,3.10
2022-08-14T13:04:58.098Z,2.83
2022-08-14T13:07:32.080Z,2.30
2022-08-14T13:10:45.979Z,1.85
2022-08-14T13:15:43.283Z,2.45
2022-08-14T13:18:14.674Z,2.83
2022-08-14T13:20:51.228Z,2.50
2022-08-14T13:23:30.684Z,2.88
2022-08-14T13:26:00.987Z,3.55
2022-08-14T13:28:33.279Z,3.00
2022-08-14T13:31:04.114Z,2.40
2022-08-14T13:33:40.493Z,3.10
2022-08-14T13:36:09.814Z,3.05
2022-08-14T13:38:39.534Z,4.07
2022-08-14T13:41:08.187Z,4.15
2022-08-14T13:43:49.450Z,4.05
2022-08-14T13:46:26.420Z,4.30
2022-08-14T13:48:55.766Z,5.47
2022-08-14T13:51:35.345Z,4.47
2022-08-14T13:54:11.074Z,5.55
2022-08-14T13:56:40.237Z,5.47
2022-08-14T14:01:43.643Z,6.10
2022-08-14T14:04:19.530Z,6.28
2022-08-14T14:06:51.443Z,7.70
2022-08-14T14:09:32.665Z,9.57
2022-08-14T14:12:38.198Z,5.72
2022-08-14T14:15:04.964Z,7.35
2022-08-14T14:17:35.294Z,6.30
2022-08-14T14:20:10.965Z,7.13
2022-08-14T14:25:45.636Z,6.63
2022-08-14T14:28:16.174Z,6.90
2022-08-14T14:30:53.123Z,6.85
2022-08-14T14:33:45.301Z,7.50
2022-08-14T14:36:14.425Z,6.70
2022-08-14T14:38:44.472Z,5.68
2022-08-14T14:41:18.125Z,6.57
2022-08-14T14:43:51.678Z,7.03
2022-08-14T14:46:21.456Z,7.25
2022-08-14T14:48:54.668Z,7.03
2022-08-14T14:51:22.303Z,7.18
2022-08-14T14:53:49.596Z,7.07
2022-08-14T14:56:49.919Z,8.25
2022-08-14T14:59:04.750Z,6.70
2022-08-14T15:01:37.223Z,6.70
2022-08-14T15:04:08.035Z,6.63
2022-08-14T15:06:49.188Z,6.28
2022-08-14T15:14:55.010Z,5.15
2022-08-14T15:17:01.372Z,5.55
2022-08-14T15:19:29.084Z,6.15
2022-08-14T15:21:57.131Z,6.15
2022-08-14T15:24:26.951Z,5.50
2022-08-14T15:26:58.734Z,7.25
2022-08-14T15:29:26.957Z,5.82
2022-08-14T15:31:54.186Z,7.53
2022-08-14T15:34:43.403Z,6.13
2022-08-14T15:37:12.797Z,6.90
2022-08-14T15:39:44.350Z,7.53
2022-08-14T15:42:15.885Z,7.40
2022-08-14T15:44:56.981Z,9.35
2022-08-14T15:47:29.884Z,7.25
2022-08-14T15:50:00.622Z,7.40
2022-08-14T15:52:35.237Z,8.05
2022-08-14T15:55:13.152Z,7.60
2022-08-14T15:58:01.503Z,7.78
2022-08-14T16:00:54.385Z,8.10
2022-08-14T16:03:27.105Z,9.15
2022-08-14T16:06:17.467Z,9.00
2022-08-14T16:08:58.850Z,9.30
2022-08-14T16:11:32.595Z,8.63
2022-08-14T16:14:01.031Z,8.57
2022-08-14T16:16:34.828Z,10.68
2022-08-14T16:19:19.469Z,10.15
2022-08-14T16:22:01.613Z,10.38
2022-08-14T16:25:00.372Z,9.02
2022-08-14T16:27:39.343Z,12.05
2022-08-14T16:30:25.012Z,9.18
2022-08-14T16:32:58.093Z,13.38
2022-08-14T16:35:43.004Z,14.43
2022-08-14T16:38:29.333Z,12.00
2022-08-14T16:41:23.086Z,12.98
2022-08-14T16:44:00.745Z,12.05
2022-08-14T16:46:36.865Z,10.48
2022-08-14T16:49:09.228Z,10.18
2022-08-14T16:51:42.027Z,9.18
2022-08-14T16:54:33.847Z,10.02
2022-08-14T16:57:25.090Z,11.65
2022-08-14T16:59:58.926Z,13.32
2022-08-14T17:02:39.854Z,11.20
2022-08-14T17:05:26.320Z,10.65
2022-08-14T17:08:30.860Z,9.05
2022-08-14T17:11:09.842Z,10.30
2022-08-14T17:13:58.489Z,10.50
2022-08-14T17:16:37.501Z,13.02
2022-08-14T17:19:09.784Z,10.63
2022-08-14T17:21:47.437Z,12.23
2022-08-14T17:24:56.839Z,12.50
2022-08-14T17:27:10.477Z,11.85
2022-08-14T17:29:52.027Z,12.88
2022-08-14T17:32:55.457Z,10.27
2022-08-14T17:35:57.528Z,12.80
2022-08-14T17:38:39.072Z,11.35
2022-08-14T17:41:36.145Z,12.18
2022-08-14T17:44:45.582Z,12.63
2022-08-14T17:49:51.670Z,10.13
2022-08-14T17:52:34.807Z,11.48
2022-08-14T17:56:00.196Z,11.65
2022-08-14T17:57:58.599Z,15.02
2022-08-14T18:00:26.327Z,12.68
2022-08-14T18:02:57.146Z,11.10
2022-08-14T18:06:07.400Z,9.80
2022-08-14T18:08:33.776Z,11.10
2022-08-14T18:11:03.329Z,15.43
2022-08-14T18:13:51.502Z,10.82
2022-08-14T18:16:21.940Z,10.48
2022-08-14T18:18:51.172Z,15.80
2022-08-14T18:21:40.784Z,12.85
2022-08-14T18:24:28.457Z,10.82
2022-08-14T18:27:16.746Z,12.40
2022-08-14T18:29:57.825Z,16.38
2022-08-14T18:32:31.159Z,13.45
2022-08-14T18:35:15.460Z,15.20
2022-08-14T18:37:55.833Z,15.35
2022-08-14T18:40:35.096Z,11.57
2022-08-14T18:43:05.435Z,13.05
2022-08-14T18:45:42.892Z,10.70
2022-08-14T18:48:20.290Z,11.40
2022-08-14T18:51:01.430Z,11.98
2022-08-14T18:53:34.157Z,11.38
2022-08-14T18:56:09.967Z,13.35
2022-08-14T18:58:57.126Z,12.60
2022-08-14T19:01:29.101Z,12.32
2022-08-14T19:04:00.788Z,14.23
2022-08-14T19:06:38.534Z,11.85
2022-08-14T19:09:06.972Z,13.18
2022-08-14T19:11:39.452Z,15.13
2022-08-14T19:14:14.107Z,12.40
2022-08-14T19:16:48.276Z,9.98
2022-08-14T19:19:23.921Z,10.15
2022-08-14T19:21:56.329Z,12.05
2022-08-14T19:24:44.107Z,11.20
2022-08-14T19:27:24.007Z,10.38
2022-08-14T19:30:23.193Z,11.63
2022-08-14T19:32:58.829Z,10.95
2022-08-14T19:35:55.146Z,11.57
2022-08-14T19:38:59.687Z,11.60
2022-08-14T19:41:33.972Z,11.32
2022-08-14T19:44:10.569Z,12.13
2022-08-14T19:47:00.416Z,12.50
2022-08-14T19:50:08.675Z,11.25
2022-08-14T19:52:26.546Z,12.75
2022-08-14T19:54:58.479Z,12.70
2022-08-14T19:57:31.152Z,14.23
2022-08-14T20:00:28.662Z,12.05
2022-08-14T20:03:10.074Z,12.82
2022-08-14T20:05:43.000Z,15.38
2022-08-14T20:10:58.746Z,13.55
2022-08-14T20:11:20.864Z,14.30
2022-08-14T20:14:03.302Z,13.60
2022-08-14T20:16:45.039Z,12.18
2022-08-14T20:19:24.492Z,11.75
2022-08-14T20:22:35.483Z,11.10
2022-08-14T20:24:50.106Z,12.00
2022-08-14T20:27:33.479Z,10.45
2022-08-14T20:33:04.053Z,12.90
2022-08-14T20:38:33.255Z,16.15
2022-08-14T20:41:05.560Z,10.63
2022-08-14T20:43:54.449Z,10.27
2022-08-14T20:46:38.647Z,12.20
2022-08-14T20:49:10.123Z,11.98
2022-08-14T20:51:59.950Z,10.45
2022-08-14T20:54:34.323Z,9.57
2022-08-14T20:57:15.063Z,8.63
2022-08-14T20:59:51.510Z,9.70
2022-08-14T21:02:46.480Z,12.25
2022-08-14T21:05:33.955Z,9.25
2022-08-14T21:08:09.891Z,10.60
2022-08-14T21:10:53.290Z,10.93
2022-08-14T21:13:27.734Z,9.90
2022-08-14T21:16:34.239Z,8.35
2022-08-14T21:18:59.446Z,9.48
2022-08-14T21:21:40.522Z,7.50
2022-08-14T21:24:38.873Z,9.57
2022-08-14T21:27:12.247Z,10.50
2022-08-14T21:29:53.640Z,11.10
2022-08-14T21:32:35.863Z,9.18
2022-08-14T21:35:09.340Z,8.52
2022-08-14T21:37:45.019Z,7.75
2022-08-14T21:40:40.736Z,8.93
2022-08-14T21:43:04.912Z,9.27
2022-08-14T21:45:35.500Z,9.80
2022-08-14T21:48:09.234Z,12.27
2022-08-14T21:51:01.628Z,9.73
2022-08-14T21:53:35.609Z,9.27
2022-08-14T21:56:23.809Z,12.43
2022-08-14T21:59:17.986Z,11.85
2022-08-14T22:02:00.143Z,12.95
2022-08-14T22:04:40.200Z,9.18
2022-08-14T22:07:17.176Z,8.30
2022-08-14T22:09:55.170Z,8.85
2022-08-14T22:12:57.310Z,8.25
2022-08-14T22:15:15.843Z,9.18
2022-08-14T22:17:44.223Z,11.25
2022-08-14T22:20:12.633Z,9.02
2022-08-14T22:22:44.530Z,10.65
2022-08-14T22:25:16.265Z,11.93
2022-08-14T22:27:55.977Z,11.38
2022-08-14T22:30:24.570Z,10.10
2022-08-14T22:32:57.414Z,10.23
2022-08-14T22:35:26.625Z,9.40
2022-08-14T22:38:34.824Z,8.63
2022-08-14T22:41:05.405Z,10.27
2022-08-14T22:43:35.231Z,9.85
2022-08-14T22:46:06.098Z,9.80
2022-08-14T22:48:44.593Z,11.05
2022-08-14T22:51:17.895Z,9.98
2022-08-14T22:53:48.436Z,9.73
2022-08-14T22:56:20.320Z,8.95
2022-08-14T22:58:53.853Z,10.35
2022-08-14T23:01:56.920Z,10.45
2022-08-14T23:04:35.948Z,10.15
2022-08-14T23:07:22.057Z,8.57
2022-08-14T23:10:31.293Z,10.02
2022-08-14T23:12:54.582Z,11.43
2022-08-14T23:15:28.738Z,9.98
2022-08-14T23:17:58.226Z,10.85
2022-08-14T23:20:29.570Z,9.70
2022-08-14T23:22:57.974Z,10.20
2022-08-14T23:25:45.791Z,9.82
2022-08-14T23:28:34.989Z,10.48
2022-08-14T23:31:34.894Z,9.90
2022-08-14T23:34:10.231Z,9.38
2022-08-14T23:36:53.462Z,8.20
2022-08-14T23:39:32.883Z,8.48
2022-08-14T23:42:10.824Z,11.38
2022-08-14T23:44:38.976Z,11.20
2022-08-14T23:47:11.560Z,10.87
2022-08-14T23:50:03.211Z,9.80
2022-08-14T23:52:55.996Z,11.30
2022-08-14T23:55:30.487Z,10.10
2022-08-14T23:57:59.276Z,9.85
